sensor_id;sensor_type;location;lat;lon;timestamp;P1;durP1;ratioP1;P2;durP2;ratioP2
24216;SDS011;12356;49.386;8.688;2022-10-04T00:04:22;10.88;;;4.70;;
24216;SDS011;12356;49.386;8.688;2022-10-04T00:09:54;13.00;;;4.85;;
24216;SDS011;12356;49.386;8.688;2022-10-04T00:12:30;11.88;;;5.05;;
24216;SDS011;12356;49.386;8.688;2022-10-04T00:23:24;12.68;;;5.18;;
24216;SDS011;12356;49.386;8.688;2022-10-04T00:26:05;9.32;;;5.22;;
24216;SDS011;12356;49.386;8.688;2022-10-04T00:28:43;12.70;;;5.95;;
24216;SDS011;12356;49.386;8.688;2022-10-04T00:31:22;12.55;;;6.43;;
24216;SDS011;12356;49.386;8.688;2022-10-04T00:34:43;12.95;;;6.50;;
24216;SDS011;12356;49.386;8.688;2022-10-04T00:36:54;15.25;;;6.15;;
24216;SDS011;12356;49.386;8.688;2022-10-04T00:39:27;12.82;;;6.40;;
24216;SDS011;12356;49.386;8.688;2022-10-04T00:42:24;12.15;;;6.65;;
24216;SDS011;12356;49.386;8.688;2022-10-04T00:45:06;12.38;;;6.53;;
24216;SDS011;12356;49.386;8.688;2022-10-04T00:50:26;10.40;;;6.20;;
24216;SDS011;12356;49.386;8.688;2022-10-04T00:53:03;12.90;;;6.40;;
24216;SDS011;12356;49.386;8.688;2022-10-04T00:55:45;10.98;;;6.82;;
24216;SDS011;12356;49.386;8.688;2022-10-04T00:58:25;15.95;;;6.43;;
24216;SDS011;12356;49.386;8.688;2022-10-04T01:01:01;10.23;;;6.15;;
24216;SDS011;12356;49.386;8.688;2022-10-04T01:03:36;11.18;;;6.43;;
24216;SDS011;12356;49.386;8.688;2022-10-04T01:06:10;10.00;;;5.80;;
24216;SDS011;12356;49.386;8.688;2022-10-04T01:08:53;14.05;;;6.22;;
24216;SDS011;12356;49.386;8.688;2022-10-04T01:11:30;12.45;;;6.30;;
24216;SDS011;12356;49.386;8.688;2022-10-04T01:14:08;11.68;;;6.40;;
24216;SDS011;12356;49.386;8.688;2022-10-04T01:16:50;13.90;;;6.10;;
24216;SDS011;12356;49.386;8.688;2022-10-04T01:24:35;10.48;;;6.10;;
24216;SDS011;12356;49.386;8.688;2022-10-04T01:30:13;10.38;;;6.15;;
24216;SDS011;12356;49.386;8.688;2022-10-04T01:32:45;14.48;;;6.07;;
24216;SDS011;12356;49.386;8.688;2022-10-04T01:35:16;11.85;;;6.50;;
24216;SDS011;12356;49.386;8.688;2022-10-04T01:37:48;15.07;;;6.30;;
24216;SDS011;12356;49.386;8.688;2022-10-04T01:40:18;14.23;;;6.22;;
24216;SDS011;12356;49.386;8.688;2022-10-04T01:42:50;12.68;;;6.35;;
24216;SDS011;12356;49.386;8.688;2022-10-04T01:45:33;11.90;;;6.28;;
24216;SDS011;12356;49.386;8.688;2022-10-04T01:48:13;11.02;;;5.88;;
24216;SDS011;12356;49.386;8.688;2022-10-04T01:50:53;12.85;;;6.40;;
24216;SDS011;12356;49.386;8.688;2022-10-04T01:53:29;10.10;;;6.05;;
24216;SDS011;12356;49.386;8.688;2022-10-04T01:56:04;14.40;;;6.30;;
24216;SDS011;12356;49.386;8.688;2022-10-04T01:58:42;14.15;;;6.60;;
24216;SDS011;12356;49.386;8.688;2022-10-04T02:03:57;11.13;;;6.03;;
24216;SDS011;12356;49.386;8.688;2022-10-04T02:06:37;9.05;;;5.82;;
24216;SDS011;12356;49.386;8.688;2022-10-04T02:09:18;11.98;;;5.57;;
24216;SDS011;12356;49.386;8.688;2022-10-04T02:11:59;14.73;;;6.22;;
24216;SDS011;12356;49.386;8.688;2022-10-04T02:14:31;16.20;;;5.97;;
24216;SDS011;12356;49.386;8.688;2022-10-04T02:19:39;10.77;;;5.70;;
24216;SDS011;12356;49.386;8.688;2022-10-04T02:22:11;9.75;;;5.43;;
24216;SDS011;12356;49.386;8.688;2022-10-04T02:24:43;9.35;;;5.88;;
24216;SDS011;12356;49.386;8.688;2022-10-04T02:27:16;10.93;;;5.50;;
24216;SDS011;12356;49.386;8.688;2022-10-04T02:29:47;10.63;;;6.05;;
24216;SDS011;12356;49.386;8.688;2022-10-04T02:32:17;11.82;;;6.05;;
24216;SDS011;12356;49.386;8.688;2022-10-04T02:35:06;10.75;;;5.97;;
24216;SDS011;12356;49.386;8.688;2022-10-04T02:37:37;10.45;;;5.85;;
24216;SDS011;12356;49.386;8.688;2022-10-04T02:40:12;12.15;;;6.35;;
24216;SDS011;12356;49.386;8.688;2022-10-04T02:42:49;12.13;;;5.80;;
24216;SDS011;12356;49.386;8.688;2022-10-04T02:45:28;9.32;;;5.70;;
24216;SDS011;12356;49.386;8.688;2022-10-04T02:51:13;14.32;;;6.18;;
24216;SDS011;12356;49.386;8.688;2022-10-04T02:53:52;12.38;;;5.95;;
24216;SDS011;12356;49.386;8.688;2022-10-04T02:56:27;9.80;;;5.55;;
24216;SDS011;12356;49.386;8.688;2022-10-04T02:59:01;11.10;;;6.05;;
24216;SDS011;12356;49.386;8.688;2022-10-04T03:01:41;8.00;;;5.85;;
24216;SDS011;12356;49.386;8.688;2022-10-04T03:04:22;10.15;;;5.18;;
24216;SDS011;12356;49.386;8.688;2022-10-04T03:06:55;9.02;;;5.85;;
24216;SDS011;12356;49.386;8.688;2022-10-04T03:09:28;8.77;;;5.60;;
24216;SDS011;12356;49.386;8.688;2022-10-04T03:11:59;10.70;;;5.40;;
24216;SDS011;12356;49.386;8.688;2022-10-04T03:14:30;10.85;;;6.03;;
24216;SDS011;12356;49.386;8.688;2022-10-04T03:17:02;11.10;;;5.40;;
24216;SDS011;12356;49.386;8.688;2022-10-04T03:19:33;11.32;;;5.10;;
24216;SDS011;12356;49.386;8.688;2022-10-04T03:22:08;10.73;;;5.65;;
24216;SDS011;12356;49.386;8.688;2022-10-04T03:24:44;8.88;;;5.30;;
24216;SDS011;12356;49.386;8.688;2022-10-04T03:27:22;10.02;;;5.57;;
24216;SDS011;12356;49.386;8.688;2022-10-04T03:29:58;12.50;;;5.13;;
24216;SDS011;12356;49.386;8.688;2022-10-04T03:32:30;9.73;;;5.43;;
24216;SDS011;12356;49.386;8.688;2022-10-04T03:35:02;9.40;;;5.32;;
24216;SDS011;12356;49.386;8.688;2022-10-04T03:37:36;13.15;;;5.40;;
24216;SDS011;12356;49.386;8.688;2022-10-04T03:40:07;11.65;;;5.78;;
24216;SDS011;12356;49.386;8.688;2022-10-04T03:42:38;10.20;;;5.20;;
24216;SDS011;12356;49.386;8.688;2022-10-04T03:45:11;7.03;;;5.13;;
24216;SDS011;12356;49.386;8.688;2022-10-04T03:47:46;10.55;;;5.25;;
24216;SDS011;12356;49.386;8.688;2022-10-04T03:50:28;12.35;;;4.68;;
24216;SDS011;12356;49.386;8.688;2022-10-04T03:53:06;7.93;;;5.07;;
24216;SDS011;12356;49.386;8.688;2022-10-04T03:55:41;9.75;;;4.90;;
24216;SDS011;12356;49.386;8.688;2022-10-04T03:58:15;15.68;;;5.45;;
24216;SDS011;12356;49.386;8.688;2022-10-04T04:03:58;10.63;;;4.93;;
24216;SDS011;12356;49.386;8.688;2022-10-04T04:06:40;9.50;;;5.10;;
24216;SDS011;12356;49.386;8.688;2022-10-04T04:09:41;13.23;;;5.13;;
24216;SDS011;12356;49.386;8.688;2022-10-04T04:15:11;9.13;;;5.00;;
24216;SDS011;12356;49.386;8.688;2022-10-04T04:17:47;13.00;;;5.70;;
24216;SDS011;12356;49.386;8.688;2022-10-04T04:20:26;9.27;;;5.15;;
24216;SDS011;12356;49.386;8.688;2022-10-04T04:25:34;9.50;;;5.00;;
24216;SDS011;12356;49.386;8.688;2022-10-04T04:31:08;11.05;;;4.50;;
24216;SDS011;12356;49.386;8.688;2022-10-04T04:33:57;6.68;;;4.80;;
24216;SDS011;12356;49.386;8.688;2022-10-04T04:36:30;11.02;;;5.50;;
24216;SDS011;12356;49.386;8.688;2022-10-04T04:44:55;7.85;;;4.75;;
24216;SDS011;12356;49.386;8.688;2022-10-04T04:47:36;12.85;;;4.82;;
24216;SDS011;12356;49.386;8.688;2022-10-04T04:50:14;8.60;;;4.60;;
24216;SDS011;12356;49.386;8.688;2022-10-04T04:52:54;9.75;;;4.57;;
24216;SDS011;12356;49.386;8.688;2022-10-04T04:55:31;8.05;;;5.50;;
24216;SDS011;12356;49.386;8.688;2022-10-04T04:58:06;9.73;;;5.22;;
24216;SDS011;12356;49.386;8.688;2022-10-04T05:00:39;11.25;;;5.07;;
24216;SDS011;12356;49.386;8.688;2022-10-04T05:03:16;7.60;;;4.50;;
24216;SDS011;12356;49.386;8.688;2022-10-04T05:05:48;9.48;;;4.80;;
24216;SDS011;12356;49.386;8.688;2022-10-04T05:08:21;11.77;;;4.90;;
24216;SDS011;12356;49.386;8.688;2022-10-04T05:11:10;8.25;;;4.95;;
24216;SDS011;12356;49.386;8.688;2022-10-04T05:16:51;7.50;;;4.90;;
24216;SDS011;12356;49.386;8.688;2022-10-04T05:19:28;7.55;;;4.72;;
24216;SDS011;12356;49.386;8.688;2022-10-04T05:22:10;10.88;;;5.20;;
24216;SDS011;12356;49.386;8.688;2022-10-04T05:24:43;8.57;;;4.90;;
24216;SDS011;12356;49.386;8.688;2022-10-04T05:27:20;9.00;;;5.10;;
24216;SDS011;12356;49.386;8.688;2022-10-04T05:29:59;8.75;;;5.10;;
24216;SDS011;12356;49.386;8.688;2022-10-04T05:35:26;12.43;;;5.68;;
24216;SDS011;12356;49.386;8.688;2022-10-04T05:38:01;14.90;;;5.72;;
24216;SDS011;12356;49.386;8.688;2022-10-04T05:41:04;8.18;;;5.50;;
24216;SDS011;12356;49.386;8.688;2022-10-04T05:43:49;10.43;;;5.60;;
24216;SDS011;12356;49.386;8.688;2022-10-04T05:46:33;13.43;;;5.70;;
24216;SDS011;12356;49.386;8.688;2022-10-04T05:49:09;9.30;;;5.40;;
24216;SDS011;12356;49.386;8.688;2022-10-04T05:51:53;9.18;;;5.10;;
24216;SDS011;12356;49.386;8.688;2022-10-04T05:54:42;10.82;;;5.32;;
24216;SDS011;12356;49.386;8.688;2022-10-04T06:02:57;9.63;;;5.53;;
24216;SDS011;12356;49.386;8.688;2022-10-04T06:11:30;10.93;;;5.85;;
24216;SDS011;12356;49.386;8.688;2022-10-04T06:22:28;11.40;;;6.30;;
24216;SDS011;12356;49.386;8.688;2022-10-04T06:25:08;11.70;;;5.72;;
24216;SDS011;12356;49.386;8.688;2022-10-04T06:27:57;9.32;;;6.00;;
24216;SDS011;12356;49.386;8.688;2022-10-04T06:33:57;14.57;;;6.15;;
24216;SDS011;12356;49.386;8.688;2022-10-04T06:42:38;15.20;;;6.78;;
24216;SDS011;12356;49.386;8.688;2022-10-04T06:45:22;11.52;;;6.22;;
24216;SDS011;12356;49.386;8.688;2022-10-04T06:48:12;17.63;;;6.72;;
24216;SDS011;12356;49.386;8.688;2022-10-04T06:51:17;13.38;;;6.60;;
24216;SDS011;12356;49.386;8.688;2022-10-04T06:57:25;13.88;;;7.03;;
24216;SDS011;12356;49.386;8.688;2022-10-04T07:02:48;16.77;;;7.30;;
24216;SDS011;12356;49.386;8.688;2022-10-04T07:05:40;12.25;;;6.65;;
24216;SDS011;12356;49.386;8.688;2022-10-04T07:17:11;19.38;;;8.35;;
24216;SDS011;12356;49.386;8.688;2022-10-04T07:19:48;20.38;;;7.88;;
24216;SDS011;12356;49.386;8.688;2022-10-04T07:23:23;13.85;;;7.05;;
24216;SDS011;12356;49.386;8.688;2022-10-04T07:25:36;19.35;;;7.85;;
24216;SDS011;12356;49.386;8.688;2022-10-04T07:28:33;12.30;;;7.28;;
24216;SDS011;12356;49.386;8.688;2022-10-04T07:31:31;15.38;;;7.55;;
24216;SDS011;12356;49.386;8.688;2022-10-04T07:34:13;18.70;;;7.82;;
24216;SDS011;12356;49.386;8.688;2022-10-04T07:36:53;15.15;;;7.75;;
24216;SDS011;12356;49.386;8.688;2022-10-04T07:39:30;19.00;;;7.90;;
24216;SDS011;12356;49.386;8.688;2022-10-04T07:42:19;14.07;;;7.85;;
24216;SDS011;12356;49.386;8.688;2022-10-04T07:48:27;13.90;;;7.88;;
24216;SDS011;12356;49.386;8.688;2022-10-04T07:51:04;16.38;;;8.10;;
24216;SDS011;12356;49.386;8.688;2022-10-04T07:53:48;16.02;;;8.40;;
24216;SDS011;12356;49.386;8.688;2022-10-04T07:56:36;17.13;;;7.78;;
24216;SDS011;12356;49.386;8.688;2022-10-04T08:02:10;16.27;;;8.15;;
24216;SDS011;12356;49.386;8.688;2022-10-04T08:04:49;16.83;;;8.57;;
24216;SDS011;12356;49.386;8.688;2022-10-04T08:12:49;14.68;;;8.00;;
24216;SDS011;12356;49.386;8.688;2022-10-04T08:15:43;18.88;;;8.40;;
24216;SDS011;12356;49.386;8.688;2022-10-04T08:21:13;13.25;;;7.82;;
24216;SDS011;12356;49.386;8.688;2022-10-04T08:24:28;17.52;;;8.50;;
24216;SDS011;12356;49.386;8.688;2022-10-04T08:30:02;15.95;;;8.55;;
24216;SDS011;12356;49.386;8.688;2022-10-04T08:35:32;13.70;;;8.82;;
24216;SDS011;12356;49.386;8.688;2022-10-04T09:12:17;14.25;;;7.97;;
24216;SDS011;12356;49.386;8.688;2022-10-04T09:15:13;16.58;;;8.20;;
24216;SDS011;12356;49.386;8.688;2022-10-04T09:18:00;17.75;;;8.10;;
24216;SDS011;12356;49.386;8.688;2022-10-04T09:26:43;14.18;;;7.18;;
24216;SDS011;12356;49.386;8.688;2022-10-04T09:29:25;16.08;;;7.72;;
24216;SDS011;12356;49.386;8.688;2022-10-04T09:35:12;15.93;;;7.32;;
24216;SDS011;12356;49.386;8.688;2022-10-04T09:43:56;12.43;;;6.63;;
24216;SDS011;12356;49.386;8.688;2022-10-04T09:53:19;10.02;;;5.78;;
24216;SDS011;12356;49.386;8.688;2022-10-04T09:56:18;12.38;;;5.70;;
24216;SDS011;12356;49.386;8.688;2022-10-04T09:59:07;13.60;;;5.68;;
24216;SDS011;12356;49.386;8.688;2022-10-04T10:04:38;16.60;;;5.32;;
24216;SDS011;12356;49.386;8.688;2022-10-04T10:10:29;8.80;;;5.03;;
24216;SDS011;12356;49.386;8.688;2022-10-04T10:16:27;13.30;;;5.00;;
24216;SDS011;12356;49.386;8.688;2022-10-04T10:28:11;15.00;;;8.93;;
24216;SDS011;12356;49.386;8.688;2022-10-04T10:30:57;10.90;;;4.50;;
24216;SDS011;12356;49.386;8.688;2022-10-04T10:48:15;8.30;;;3.25;;
24216;SDS011;12356;49.386;8.688;2022-10-04T11:14:54;5.03;;;2.72;;
24216;SDS011;12356;49.386;8.688;2022-10-04T11:27:21;8.38;;;2.70;;
24216;SDS011;12356;49.386;8.688;2022-10-04T11:38:29;6.93;;;2.50;;
24216;SDS011;12356;49.386;8.688;2022-10-04T11:41:38;4.47;;;2.30;;
24216;SDS011;12356;49.386;8.688;2022-10-04T11:50:27;6.25;;;2.42;;
24216;SDS011;12356;49.386;8.688;2022-10-04T12:10:11;6.47;;;2.88;;
24216;SDS011;12356;49.386;8.688;2022-10-04T12:13:06;5.55;;;2.83;;
24216;SDS011;12356;49.386;8.688;2022-10-04T12:23:59;5.43;;;2.78;;
24216;SDS011;12356;49.386;8.688;2022-10-04T12:31:59;8.05;;;3.13;;
24216;SDS011;12356;49.386;8.688;2022-10-04T12:34:54;5.03;;;2.47;;
24216;SDS011;12356;49.386;8.688;2022-10-04T12:37:58;10.20;;;2.65;;
24216;SDS011;12356;49.386;8.688;2022-10-04T12:43:48;5.50;;;2.50;;
24216;SDS011;12356;49.386;8.688;2022-10-04T12:49:56;6.25;;;2.78;;
24216;SDS011;12356;49.386;8.688;2022-10-04T12:52:51;6.15;;;2.60;;
24216;SDS011;12356;49.386;8.688;2022-10-04T12:58:32;5.80;;;2.42;;
24216;SDS011;12356;49.386;8.688;2022-10-04T13:12:25;6.32;;;2.40;;
24216;SDS011;12356;49.386;8.688;2022-10-04T13:37:31;6.88;;;2.40;;
24216;SDS011;12356;49.386;8.688;2022-10-04T13:59:03;5.43;;;2.28;;
24216;SDS011;12356;49.386;8.688;2022-10-04T14:26:53;3.93;;;1.90;;
24216;SDS011;12356;49.386;8.688;2022-10-04T14:29:49;3.05;;;2.00;;
24216;SDS011;12356;49.386;8.688;2022-10-04T14:35:30;6.55;;;2.10;;
24216;SDS011;12356;49.386;8.688;2022-10-04T14:40:44;4.40;;;2.40;;
24216;SDS011;12356;49.386;8.688;2022-10-04T14:54:51;4.32;;;2.33;;
24216;SDS011;12356;49.386;8.688;2022-10-04T15:00:23;4.78;;;2.20;;
24216;SDS011;12356;49.386;8.688;2022-10-04T15:19:03;4.72;;;2.33;;
24216;SDS011;12356;49.386;8.688;2022-10-04T15:33:10;4.70;;;2.30;;
24216;SDS011;12356;49.386;8.688;2022-10-04T15:41:02;5.07;;;2.42;;
24216;SDS011;12356;49.386;8.688;2022-10-04T16:04:31;5.85;;;2.45;;
24216;SDS011;12356;49.386;8.688;2022-10-04T16:09:59;5.97;;;2.70;;
24216;SDS011;12356;49.386;8.688;2022-10-04T16:15:37;10.20;;;2.53;;
24216;SDS011;12356;49.386;8.688;2022-10-04T16:32:11;9.15;;;2.35;;
24216;SDS011;12356;49.386;8.688;2022-10-04T16:35:03;5.32;;;2.30;;
24216;SDS011;12356;49.386;8.688;2022-10-04T16:37:52;4.90;;;2.70;;
24216;SDS011;12356;49.386;8.688;2022-10-04T16:40:38;5.30;;;2.33;;
24216;SDS011;12356;49.386;8.688;2022-10-04T16:59:57;7.07;;;2.60;;
24216;SDS011;12356;49.386;8.688;2022-10-04T17:02:40;5.80;;;2.80;;
24216;SDS011;12356;49.386;8.688;2022-10-04T17:05:17;4.55;;;2.55;;
24216;SDS011;12356;49.386;8.688;2022-10-04T17:11:06;5.43;;;2.72;;
24216;SDS011;12356;49.386;8.688;2022-10-04T17:16:37;5.70;;;2.70;;
24216;SDS011;12356;49.386;8.688;2022-10-04T17:19:27;7.22;;;3.05;;
24216;SDS011;12356;49.386;8.688;2022-10-04T17:24:56;7.93;;;2.60;;
24216;SDS011;12356;49.386;8.688;2022-10-04T17:27:52;8.57;;;3.38;;
24216;SDS011;12356;49.386;8.688;2022-10-04T17:30:29;5.57;;;3.33;;
24216;SDS011;12356;49.386;8.688;2022-10-04T17:33:32;8.55;;;5.85;;
24216;SDS011;12356;49.386;8.688;2022-10-04T17:47:38;8.48;;;3.50;;
24216;SDS011;12356;49.386;8.688;2022-10-04T17:50:41;7.45;;;2.40;;
24216;SDS011;12356;49.386;8.688;2022-10-04T17:53:44;7.60;;;4.07;;
24216;SDS011;12356;49.386;8.688;2022-10-04T17:56:43;11.20;;;5.90;;
24216;SDS011;12356;49.386;8.688;2022-10-04T17:59:21;7.00;;;4.07;;
24216;SDS011;12356;49.386;8.688;2022-10-04T18:02:07;10.02;;;4.90;;
24216;SDS011;12356;49.386;8.688;2022-10-04T18:04:52;12.50;;;5.65;;
24216;SDS011;12356;49.386;8.688;2022-10-04T18:07:33;8.60;;;4.30;;
24216;SDS011;12356;49.386;8.688;2022-10-04T18:12:50;16.63;;;3.53;;
24216;SDS011;12356;49.386;8.688;2022-10-04T18:15:50;7.07;;;3.60;;
24216;SDS011;12356;49.386;8.688;2022-10-04T18:18:41;7.63;;;3.55;;
24216;SDS011;12356;49.386;8.688;2022-10-04T18:23:58;8.55;;;4.07;;
24216;SDS011;12356;49.386;8.688;2022-10-04T18:27:20;9.25;;;4.40;;
24216;SDS011;12356;49.386;8.688;2022-10-04T18:29:54;7.78;;;5.00;;
24216;SDS011;12356;49.386;8.688;2022-10-04T18:32:32;13.82;;;6.78;;
24216;SDS011;12356;49.386;8.688;2022-10-04T18:35:18;14.15;;;8.43;;
24216;SDS011;12356;49.386;8.688;2022-10-04T18:37:52;15.63;;;7.75;;
24216;SDS011;12356;49.386;8.688;2022-10-04T18:40:40;10.80;;;6.55;;
24216;SDS011;12356;49.386;8.688;2022-10-04T18:46:00;16.05;;;6.40;;
24216;SDS011;12356;49.386;8.688;2022-10-04T18:48:35;15.10;;;6.90;;
24216;SDS011;12356;49.386;8.688;2022-10-04T18:51:20;11.65;;;5.25;;
24216;SDS011;12356;49.386;8.688;2022-10-04T18:57:06;13.05;;;5.68;;
24216;SDS011;12356;49.386;8.688;2022-10-04T19:03:02;7.80;;;4.93;;
24216;SDS011;12356;49.386;8.688;2022-10-04T19:06:28;10.63;;;5.15;;
24216;SDS011;12356;49.386;8.688;2022-10-04T19:08:52;11.73;;;5.72;;
24216;SDS011;12356;49.386;8.688;2022-10-04T19:16:59;9.80;;;4.80;;
24216;SDS011;12356;49.386;8.688;2022-10-04T19:19:40;11.30;;;5.10;;
24216;SDS011;12356;49.386;8.688;2022-10-04T19:27:40;10.05;;;5.72;;
24216;SDS011;12356;49.386;8.688;2022-10-04T19:32:53;15.98;;;6.20;;
24216;SDS011;12356;49.386;8.688;2022-10-04T19:41:19;13.73;;;6.93;;
24216;SDS011;12356;49.386;8.688;2022-10-04T19:46:35;14.82;;;6.43;;
24216;SDS011;12356;49.386;8.688;2022-10-04T19:49:41;12.10;;;6.50;;
24216;SDS011;12356;49.386;8.688;2022-10-04T19:54:56;19.23;;;10.40;;
24216;SDS011;12356;49.386;8.688;2022-10-04T19:57:36;14.70;;;7.70;;
24216;SDS011;12356;49.386;8.688;2022-10-04T20:00:09;9.90;;;6.18;;
24216;SDS011;12356;49.386;8.688;2022-10-04T20:02:42;12.48;;;6.88;;
24216;SDS011;12356;49.386;8.688;2022-10-04T20:05:13;13.07;;;6.22;;
24216;SDS011;12356;49.386;8.688;2022-10-04T20:07:57;10.68;;;6.47;;
24216;SDS011;12356;49.386;8.688;2022-10-04T20:10:35;12.10;;;6.35;;
24216;SDS011;12356;49.386;8.688;2022-10-04T20:15:57;11.77;;;5.80;;
24216;SDS011;12356;49.386;8.688;2022-10-04T20:21:03;11.10;;;5.93;;
24216;SDS011;12356;49.386;8.688;2022-10-04T20:26:12;16.55;;;5.95;;
24216;SDS011;12356;49.386;8.688;2022-10-04T20:37:10;10.87;;;5.97;;
24216;SDS011;12356;49.386;8.688;2022-10-04T20:42:33;10.23;;;6.40;;
24216;SDS011;12356;49.386;8.688;2022-10-04T20:50:14;9.25;;;6.50;;
24216;SDS011;12356;49.386;8.688;2022-10-04T20:52:50;12.40;;;6.15;;
24216;SDS011;12356;49.386;8.688;2022-10-04T20:55:24;10.95;;;6.57;;
24216;SDS011;12356;49.386;8.688;2022-10-04T20:58:42;15.98;;;6.90;;
24216;SDS011;12356;49.386;8.688;2022-10-04T21:00:55;11.88;;;6.68;;
24216;SDS011;12356;49.386;8.688;2022-10-04T21:03:27;10.15;;;6.40;;
24216;SDS011;12356;49.386;8.688;2022-10-04T21:06:04;10.70;;;5.97;;
24216;SDS011;12356;49.386;8.688;2022-10-04T21:08:37;14.55;;;6.75;;
24216;SDS011;12356;49.386;8.688;2022-10-04T21:29:58;11.68;;;5.93;;
24216;SDS011;12356;49.386;8.688;2022-10-04T21:32:36;9.73;;;5.72;;
24216;SDS011;12356;49.386;8.688;2022-10-04T21:35:07;10.38;;;5.55;;
24216;SDS011;12356;49.386;8.688;2022-10-04T21:37:38;8.90;;;5.47;;
24216;SDS011;12356;49.386;8.688;2022-10-04T21:40:09;17.17;;;5.90;;
24216;SDS011;12356;49.386;8.688;2022-10-04T21:42:41;11.48;;;5.57;;
24216;SDS011;12356;49.386;8.688;2022-10-04T21:45:12;9.23;;;5.95;;
24216;SDS011;12356;49.386;8.688;2022-10-04T21:47:43;12.05;;;5.68;;
24216;SDS011;12356;49.386;8.688;2022-10-04T21:50:13;10.45;;;5.60;;
24216;SDS011;12356;49.386;8.688;2022-10-04T21:52:44;8.45;;;6.30;;
24216;SDS011;12356;49.386;8.688;2022-10-04T21:55:15;15.43;;;7.47;;
24216;SDS011;12356;49.386;8.688;2022-10-04T21:57:45;17.80;;;8.63;;
24216;SDS011;12356;49.386;8.688;2022-10-04T22:00:16;17.42;;;9.48;;
24216;SDS011;12356;49.386;8.688;2022-10-04T22:02:47;17.55;;;9.07;;
24216;SDS011;12356;49.386;8.688;2022-10-04T22:05:17;19.15;;;8.18;;
24216;SDS011;12356;49.386;8.688;2022-10-04T22:07:48;13.70;;;7.47;;
24216;SDS011;12356;49.386;8.688;2022-10-04T22:10:19;11.27;;;6.50;;
24216;SDS011;12356;49.386;8.688;2022-10-04T22:12:49;11.48;;;6.82;;
24216;SDS011;12356;49.386;8.688;2022-10-04T22:15:20;9.35;;;5.90;;
24216;SDS011;12356;49.386;8.688;2022-10-04T22:20:23;12.80;;;6.30;;
24216;SDS011;12356;49.386;8.688;2022-10-04T22:22:55;13.23;;;6.55;;
24216;SDS011;12356;49.386;8.688;2022-10-04T22:25:27;12.65;;;7.15;;
24216;SDS011;12356;49.386;8.688;2022-10-04T22:27:57;10.82;;;6.63;;
24216;SDS011;12356;49.386;8.688;2022-10-04T22:30:29;11.88;;;6.38;;
24216;SDS011;12356;49.386;8.688;2022-10-04T22:33:16;18.00;;;6.93;;
24216;SDS011;12356;49.386;8.688;2022-10-04T22:36:09;9.98;;;7.13;;
24216;SDS011;12356;49.386;8.688;2022-10-04T22:38:44;14.30;;;7.28;;
24216;SDS011;12356;49.386;8.688;2022-10-04T22:41:20;13.25;;;7.38;;
24216;SDS011;12356;49.386;8.688;2022-10-04T22:43:50;12.75;;;6.90;;
24216;SDS011;12356;49.386;8.688;2022-10-04T22:46:21;12.13;;;6.47;;
24216;SDS011;12356;49.386;8.688;2022-10-04T22:48:57;10.93;;;6.15;;
24216;SDS011;12356;49.386;8.688;2022-10-04T22:51:28;11.43;;;6.32;;
24216;SDS011;12356;49.386;8.688;2022-10-04T22:53:59;10.52;;;6.15;;
24216;SDS011;12356;49.386;8.688;2022-10-04T22:56:29;12.95;;;5.95;;
24216;SDS011;12356;49.386;8.688;2022-10-04T22:59:00;10.73;;;6.15;;
24216;SDS011;12356;49.386;8.688;2022-10-04T23:01:30;9.27;;;5.90;;
24216;SDS011;12356;49.386;8.688;2022-10-04T23:04:01;12.50;;;5.57;;
24216;SDS011;12356;49.386;8.688;2022-10-04T23:06:33;13.93;;;5.65;;
24216;SDS011;12356;49.386;8.688;2022-10-04T23:09:04;10.32;;;5.88;;
24216;SDS011;12356;49.386;8.688;2022-10-04T23:11:34;10.82;;;5.45;;
24216;SDS011;12356;49.386;8.688;2022-10-04T23:14:05;11.80;;;5.75;;
24216;SDS011;12356;49.386;8.688;2022-10-04T23:16:36;13.55;;;5.90;;
24216;SDS011;12356;49.386;8.688;2022-10-04T23:21:44;11.10;;;6.68;;
24216;SDS011;12356;49.386;8.688;2022-10-04T23:24:20;14.70;;;6.30;;
24216;SDS011;12356;49.386;8.688;2022-10-04T23:26:52;12.32;;;6.32;;
24216;SDS011;12356;49.386;8.688;2022-10-04T23:29:26;12.13;;;5.78;;
24216;SDS011;12356;49.386;8.688;2022-10-04T23:32:06;10.00;;;5.65;;
24216;SDS011;12356;49.386;8.688;2022-10-04T23:34:41;10.73;;;5.57;;
24216;SDS011;12356;49.386;8.688;2022-10-04T23:37:22;10.25;;;6.05;;
24216;SDS011;12356;49.386;8.688;2022-10-04T23:39:58;8.55;;;5.32;;
24216;SDS011;12356;49.386;8.688;2022-10-04T23:42:29;8.93;;;5.70;;
24216;SDS011;12356;49.386;8.688;2022-10-04T23:45:04;10.48;;;5.30;;
24216;SDS011;12356;49.386;8.688;2022-10-04T23:47:50;11.57;;;5.32;;
24216;SDS011;12356;49.386;8.688;2022-10-04T23:50:33;10.88;;;5.45;;
24216;SDS011;12356;49.386;8.688;2022-10-04T23:53:10;9.75;;;5.40;;
24216;SDS011;12356;49.386;8.688;2022-10-04T23:55:47;9.10;;;5.15;;
24216;SDS011;12356;49.386;8.688;2022-10-04T23:58:19;9.38;;;4.57;;
